sensor_id;sensor_type;location;lat;lon;timestamp;pressure;altitude;pressure_sealevel;temperature;humidity
76022;BME280;64718;52.124;6.226;2023-03-14T09:08:31;99231.38;;;6.27;100.00
76022;BME280;64718;52.124;6.226;2023-03-14T09:10:58;99233.13;;;6.10;100.00
76022;BME280;64718;52.124;6.226;2023-03-14T09:13:25;99254.63;;;6.10;100.00
76022;BME280;64718;52.124;6.226;2023-03-14T09:15:51;99272.69;;;6.10;100.00
76022;BME280;64718;52.124;6.226;2023-03-14T09:18:18;99282.19;;;6.10;100.00
76022;BME280;64718;52.124;6.226;2023-03-14T09:20:44;99278.75;;;6.26;100.00
76022;BME280;64718;52.124;6.226;2023-03-14T09:23:11;99309.34;;;6.17;100.00
76022;BME280;64718;52.124;6.226;2023-03-14T09:25:39;99315.97;;;6.05;100.00
76022;BME280;64718;52.124;6.226;2023-03-14T09:28:05;99335.25;;;6.15;100.00
76022;BME280;64718;52.124;6.226;2023-03-14T09:30:32;99347.47;;;6.29;100.00
76022;BME280;64718;52.124;6.226;2023-03-14T09:32:59;99353.16;;;6.18;100.00
76022;BME280;64718;52.124;6.226;2023-03-14T09:35:25;99356.06;;;6.29;100.00
76022;BME280;64718;52.124;6.226;2023-03-14T09:37:52;99364.22;;;6.56;100.00
76022;BME280;64718;52.124;6.226;2023-03-14T09:40:20;99364.59;;;6.49;100.00
76022;BME280;64718;52.124;6.226;2023-03-14T09:42:51;99369.66;;;6.33;100.00
76022;BME280;64718;52.124;6.226;2023-03-14T09:45:24;99387.44;;;6.39;100.00
76022;BME280;64718;52.124;6.226;2023-03-14T09:47:52;99392.75;;;6.71;100.00
76022;BME280;64718;52.124;6.226;2023-03-14T09:50:19;99408.31;;;6.86;100.00
76022;BME280;64718;52.124;6.226;2023-03-14T09:52:48;99414.19;;;7.07;100.00
76022;BME280;64718;52.124;6.226;2023-03-14T09:55:18;99427.66;;;6.96;100.00
76022;BME280;64718;52.124;6.226;2023-03-14T09:57:47;99435.25;;;6.65;100.00
76022;BME280;64718;52.124;6.226;2023-03-14T10:00:18;99451.66;;;6.81;100.00
76022;BME280;64718;52.124;6.226;2023-03-14T10:02:50;99459.47;;;6.80;100.00
76022;BME280;64718;52.124;6.226;2023-03-14T10:05:22;99468.44;;;6.55;100.00
76022;BME280;64718;52.124;6.226;2023-03-14T10:07:49;99481.06;;;6.61;100.00
76022;BME280;64718;52.124;6.226;2023-03-14T10:10:18;99489.06;;;7.09;100.00
76022;BME280;64718;52.124;6.226;2023-03-14T10:12:45;99495.06;;;7.09;100.00
76022;BME280;64718;52.124;6.226;2023-03-14T10:15:15;99506.47;;;7.22;100.00
76022;BME280;64718;52.124;6.226;2023-03-14T10:17:50;99516.81;;;7.57;100.00
76022;BME280;64718;52.124;6.226;2023-03-14T10:20:30;99527.22;;;7.38;100.00
76022;BME280;64718;52.124;6.226;2023-03-14T10:22:59;99530.34;;;7.45;100.00
76022;BME280;64718;52.124;6.226;2023-03-14T10:25:27;99547.53;;;7.46;100.00
76022;BME280;64718;52.124;6.226;2023-03-14T10:27:55;99551.81;;;7.29;100.00
76022;BME280;64718;52.124;6.226;2023-03-14T10:30:37;99563.66;;;7.34;100.00
76022;BME280;64718;52.124;6.226;2023-03-14T10:33:11;99567.41;;;7.63;100.00
76022;BME280;64718;52.124;6.226;2023-03-14T10:35:39;99580.03;;;7.69;100.00
76022;BME280;64718;52.124;6.226;2023-03-14T10:38:12;99583.72;;;7.80;100.00
76022;BME280;64718;52.124;6.226;2023-03-14T10:40:41;99590.50;;;7.48;100.00
76022;BME280;64718;52.124;6.226;2023-03-14T10:43:16;99621.41;;;7.51;100.00
76022;BME280;64718;52.124;6.226;2023-03-14T10:45:51;99631.72;;;7.53;100.00
76022;BME280;64718;52.124;6.226;2023-03-14T10:48:24;99651.59;;;7.34;100.00
76022;BME280;64718;52.124;6.226;2023-03-14T10:50:57;99671.59;;;6.94;100.00
76022;BME280;64718;52.124;6.226;2023-03-14T10:53:24;99681.84;;;6.77;100.00
76022;BME280;64718;52.124;6.226;2023-03-14T10:55:51;99686.97;;;6.97;100.00
76022;BME280;64718;52.124;6.226;2023-03-14T10:58:22;99702.38;;;7.17;100.00
76022;BME280;64718;52.124;6.226;2023-03-14T11:00:57;99702.34;;;7.36;100.00
76022;BME280;64718;52.124;6.226;2023-03-14T11:03:28;99697.38;;;7.68;100.00
76022;BME280;64718;52.124;6.226;2023-03-14T11:05:59;99722.88;;;7.58;100.00
76022;BME280;64718;52.124;6.226;2023-03-14T11:08:31;99739.44;;;7.18;100.00
76022;BME280;64718;52.124;6.226;2023-03-14T11:11:09;99747.72;;;7.24;100.00
76022;BME280;64718;52.124;6.226;2023-03-14T11:13:47;99739.00;;;7.08;100.00
76022;BME280;64718;52.124;6.226;2023-03-14T11:16:22;99759.16;;;6.81;100.00
76022;BME280;64718;52.124;6.226;2023-03-14T11:19:03;99772.84;;;7.04;100.00
76022;BME280;64718;52.124;6.226;2023-03-14T11:21:41;99783.78;;;7.27;100.00
76022;BME280;64718;52.124;6.226;2023-03-14T11:24:25;99792.75;;;7.58;100.00
76022;BME280;64718;52.124;6.226;2023-03-14T11:26:59;99797.88;;;7.77;100.00
76022;BME280;64718;52.124;6.226;2023-03-14T11:29:33;99820.91;;;7.45;100.00
76022;BME280;64718;52.124;6.226;2023-03-14T11:32:12;99828.38;;;7.33;100.00
76022;BME280;64718;52.124;6.226;2023-03-14T11:34:43;99834.75;;;7.44;100.00
76022;BME280;64718;52.124;6.226;2023-03-14T11:37:15;99842.59;;;7.61;100.00
76022;BME280;64718;52.124;6.226;2023-03-14T11:39:48;99841.38;;;8.05;100.00
76022;BME280;64718;52.124;6.226;2023-03-14T11:42:18;99848.06;;;8.28;99.24
76022;BME280;64718;52.124;6.226;2023-03-14T11:44:47;99852.34;;;8.29;97.56
76022;BME280;64718;52.124;6.226;2023-03-14T11:47:19;99855.09;;;8.07;97.69
76022;BME280;64718;52.124;6.226;2023-03-14T11:49:49;99873.28;;;7.88;98.06
76022;BME280;64718;52.124;6.226;2023-03-14T11:52:20;99867.56;;;8.17;97.92
76022;BME280;64718;52.124;6.226;2023-03-14T11:54:52;99864.31;;;8.66;98.47
76022;BME280;64718;52.124;6.226;2023-03-14T11:57:22;99879.97;;;8.47;94.91
76022;BME280;64718;52.124;6.226;2023-03-14T11:59:52;99890.00;;;8.53;93.06
76022;BME280;64718;52.124;6.226;2023-03-14T12:02:28;99892.16;;;8.62;92.73
76022;BME280;64718;52.124;6.226;2023-03-14T12:05:25;99900.25;;;8.01;90.44
76022;BME280;64718;52.124;6.226;2023-03-14T12:11:02;99911.47;;;7.83;92.73
76022;BME280;64718;52.124;6.226;2023-03-14T12:13:33;99915.94;;;8.17;91.80
76022;BME280;64718;52.124;6.226;2023-03-14T12:16:05;99931.88;;;8.63;88.03
76022;BME280;64718;52.124;6.226;2023-03-14T12:18:35;99936.06;;;8.65;80.86
76022;BME280;64718;52.124;6.226;2023-03-14T12:21:05;99945.81;;;8.60;84.34
76022;BME280;64718;52.124;6.226;2023-03-14T12:23:36;99946.31;;;8.85;83.13
76022;BME280;64718;52.124;6.226;2023-03-14T12:26:16;99946.59;;;9.14;78.42
76022;BME280;64718;52.124;6.226;2023-03-14T12:28:48;99956.31;;;9.43;73.82
76022;BME280;64718;52.124;6.226;2023-03-14T12:31:38;99973.41;;;9.47;73.11
76022;BME280;64718;52.124;6.226;2023-03-14T12:34:29;99977.72;;;9.31;75.10
76022;BME280;64718;52.124;6.226;2023-03-14T12:37:04;99980.63;;;9.25;74.58
76022;BME280;64718;52.124;6.226;2023-03-14T12:39:37;99988.47;;;9.24;71.54
76022;BME280;64718;52.124;6.226;2023-03-14T12:42:10;99988.94;;;8.80;70.00
76022;BME280;64718;52.124;6.226;2023-03-14T12:44:45;100006.63;;;8.72;72.32
76022;BME280;64718;52.124;6.226;2023-03-14T12:47:45;100002.59;;;8.47;73.71
76022;BME280;64718;52.124;6.226;2023-03-14T12:50:21;100012.97;;;8.65;74.64
76022;BME280;64718;52.124;6.226;2023-03-14T12:52:58;100015.47;;;8.85;68.80
76022;BME280;64718;52.124;6.226;2023-03-14T12:55:33;100026.03;;;9.34;66.86
76022;BME280;64718;52.124;6.226;2023-03-14T12:58:08;100027.72;;;9.68;71.38
76022;BME280;64718;52.124;6.226;2023-03-14T13:00:40;100037.03;;;9.89;69.75
76022;BME280;64718;52.124;6.226;2023-03-14T13:03:18;100040.56;;;10.04;70.87
76022;BME280;64718;52.124;6.226;2023-03-14T13:05:56;100048.66;;;9.65;65.42
76022;BME280;64718;52.124;6.226;2023-03-14T13:08:35;100061.66;;;9.47;68.67
76022;BME280;64718;52.124;6.226;2023-03-14T13:11:02;100059.69;;;9.52;70.05
76022;BME280;64718;52.124;6.226;2023-03-14T13:13:34;100075.72;;;9.43;70.00
76022;BME280;64718;52.124;6.226;2023-03-14T13:16:02;100075.03;;;9.40;71.35
76022;BME280;64718;52.124;6.226;2023-03-14T13:18:34;100074.72;;;9.29;59.30
76022;BME280;64718;52.124;6.226;2023-03-14T13:21:05;100083.94;;;9.17;58.58
76022;BME280;64718;52.124;6.226;2023-03-14T13:23:34;100093.03;;;9.26;60.72
76022;BME280;64718;52.124;6.226;2023-03-14T13:26:01;100095.88;;;8.85;56.23
76022;BME280;64718;52.124;6.226;2023-03-14T13:28:29;100110.81;;;8.80;55.63
76022;BME280;64718;52.124;6.226;2023-03-14T13:30:58;100125.00;;;8.90;54.36
76022;BME280;64718;52.124;6.226;2023-03-14T13:33:25;100126.78;;;8.71;51.60
76022;BME280;64718;52.124;6.226;2023-03-14T13:35:56;100134.41;;;8.55;51.40
76022;BME280;64718;52.124;6.226;2023-03-14T13:38:26;100142.34;;;8.32;56.01
76022;BME280;64718;52.124;6.226;2023-03-14T13:40:54;100153.06;;;8.24;56.84
76022;BME280;64718;52.124;6.226;2023-03-14T13:43:27;100157.88;;;8.52;58.04
76022;BME280;64718;52.124;6.226;2023-03-14T13:46:01;100166.72;;;8.28;53.77
76022;BME280;64718;52.124;6.226;2023-03-14T13:48:30;100173.13;;;8.39;57.61
76022;BME280;64718;52.124;6.226;2023-03-14T13:51:00;100165.41;;;8.38;57.25
76022;BME280;64718;52.124;6.226;2023-03-14T13:53:29;100195.34;;;8.45;59.51
76022;BME280;64718;52.124;6.226;2023-03-14T13:55:56;100199.84;;;8.60;55.71
76022;BME280;64718;52.124;6.226;2023-03-14T13:58:25;100202.47;;;8.79;54.43
76022;BME280;64718;52.124;6.226;2023-03-14T14:01:01;100209.88;;;8.68;44.61
76022;BME280;64718;52.124;6.226;2023-03-14T14:03:31;100218.78;;;8.81;48.57
76022;BME280;64718;52.124;6.226;2023-03-14T14:05:58;100235.53;;;8.74;47.43
76022;BME280;64718;52.124;6.226;2023-03-14T14:08:26;100238.13;;;8.74;47.75
76022;BME280;64718;52.124;6.226;2023-03-14T14:10:57;100253.88;;;8.69;47.14
76022;BME280;64718;52.124;6.226;2023-03-14T14:13:27;100258.88;;;8.53;49.10
76022;BME280;64718;52.124;6.226;2023-03-14T14:15:55;100270.81;;;8.37;46.38
76022;BME280;64718;52.124;6.226;2023-03-14T14:18:26;100267.63;;;8.51;45.43
76022;BME280;64718;52.124;6.226;2023-03-14T14:20:53;100283.63;;;8.61;46.20
76022;BME280;64718;52.124;6.226;2023-03-14T14:23:22;100283.81;;;8.76;49.42
76022;BME280;64718;52.124;6.226;2023-03-14T14:25:51;100285.44;;;8.79;49.03
76022;BME280;64718;52.124;6.226;2023-03-14T14:28:24;100294.69;;;8.84;46.22
76022;BME280;64718;52.124;6.226;2023-03-14T14:31:06;100305.41;;;8.77;51.78
76022;BME280;64718;52.124;6.226;2023-03-14T14:33:44;100306.78;;;8.45;48.30
76022;BME280;64718;52.124;6.226;2023-03-14T14:36:18;100320.66;;;8.22;50.92
76022;BME280;64718;52.124;6.226;2023-03-14T14:38:57;100321.25;;;8.07;51.90
76022;BME280;64718;52.124;6.226;2023-03-14T14:41:27;100325.00;;;8.00;52.18
76022;BME280;64718;52.124;6.226;2023-03-14T14:43:56;100316.97;;;8.28;51.81
76022;BME280;64718;52.124;6.226;2023-03-14T14:46:26;100337.84;;;8.65;55.13
76022;BME280;64718;52.124;6.226;2023-03-14T14:48:55;100345.91;;;8.79;49.21
76022;BME280;64718;52.124;6.226;2023-03-14T14:51:25;100359.28;;;9.09;47.49
76022;BME280;64718;52.124;6.226;2023-03-14T14:54:02;100354.22;;;9.45;49.78
76022;BME280;64718;52.124;6.226;2023-03-14T14:56:29;100352.53;;;9.44;49.79
76022;BME280;64718;52.124;6.226;2023-03-14T14:58:59;100370.97;;;9.38;44.60
76022;BME280;64718;52.124;6.226;2023-03-14T15:01:32;100373.34;;;8.85;47.09
76022;BME280;64718;52.124;6.226;2023-03-14T15:03:59;100378.03;;;8.35;46.38
76022;BME280;64718;52.124;6.226;2023-03-14T15:06:28;100388.44;;;8.11;47.55
76022;BME280;64718;52.124;6.226;2023-03-14T15:08:57;100394.63;;;8.29;49.21
76022;BME280;64718;52.124;6.226;2023-03-14T15:11:25;100392.00;;;8.73;49.43
76022;BME280;64718;52.124;6.226;2023-03-14T15:13:53;100395.84;;;8.42;48.76
76022;BME280;64718;52.124;6.226;2023-03-14T15:16:22;100414.66;;;7.80;55.17
76022;BME280;64718;52.124;6.226;2023-03-14T15:18:53;100416.75;;;7.24;49.67
76022;BME280;64718;52.124;6.226;2023-03-14T15:21:20;100417.84;;;7.17;54.42
76022;BME280;64718;52.124;6.226;2023-03-14T15:23:46;100420.44;;;6.92;52.41
76022;BME280;64718;52.124;6.226;2023-03-14T15:26:15;100424.13;;;6.85;56.19
76022;BME280;64718;52.124;6.226;2023-03-14T15:28:42;100415.00;;;6.75;52.61
76022;BME280;64718;52.124;6.226;2023-03-14T15:31:10;100435.66;;;6.75;57.14
76022;BME280;64718;52.124;6.226;2023-03-14T15:33:38;100438.66;;;6.62;54.89
76022;BME280;64718;52.124;6.226;2023-03-14T15:36:06;100448.00;;;6.66;55.25
76022;BME280;64718;52.124;6.226;2023-03-14T15:38:40;100454.81;;;6.69;56.93
76022;BME280;64718;52.124;6.226;2023-03-14T15:41:08;100460.03;;;6.68;59.06
76022;BME280;64718;52.124;6.226;2023-03-14T15:43:35;100467.72;;;6.69;57.54
76022;BME280;64718;52.124;6.226;2023-03-14T15:46:02;100475.44;;;6.71;56.51
76022;BME280;64718;52.124;6.226;2023-03-14T15:48:31;100481.50;;;6.70;58.90
76022;BME280;64718;52.124;6.226;2023-03-14T15:50:59;100475.72;;;6.61;56.11
76022;BME280;64718;52.124;6.226;2023-03-14T15:53:25;100484.38;;;6.60;56.50
76022;BME280;64718;52.124;6.226;2023-03-14T15:55:52;100491.97;;;6.65;55.72
76022;BME280;64718;52.124;6.226;2023-03-14T15:58:19;100488.34;;;6.71;57.36
76022;BME280;64718;52.124;6.226;2023-03-14T16:00:46;100504.09;;;6.63;57.19
76022;BME280;64718;52.124;6.226;2023-03-14T16:03:13;100508.72;;;6.53;56.67
76022;BME280;64718;52.124;6.226;2023-03-14T16:05:40;100517.81;;;6.65;58.76
76022;BME280;64718;52.124;6.226;2023-03-14T16:08:08;100521.25;;;6.65;59.18
76022;BME280;64718;52.124;6.226;2023-03-14T16:10:34;100526.47;;;6.64;58.00
76022;BME280;64718;52.124;6.226;2023-03-14T16:13:01;100536.38;;;6.78;59.80
76022;BME280;64718;52.124;6.226;2023-03-14T16:15:28;100540.75;;;6.76;57.70
76022;BME280;64718;52.124;6.226;2023-03-14T16:17:55;100538.16;;;6.76;59.84
76022;BME280;64718;52.124;6.226;2023-03-14T16:20:22;100539.94;;;6.74;62.51
76022;BME280;64718;52.124;6.226;2023-03-14T16:22:49;100554.09;;;6.62;60.54
76022;BME280;64718;52.124;6.226;2023-03-14T16:25:17;100558.56;;;6.57;62.19
76022;BME280;64718;52.124;6.226;2023-03-14T16:27:44;100564.44;;;6.32;58.46
76022;BME280;64718;52.124;6.226;2023-03-14T16:30:11;100567.38;;;6.20;60.84
76022;BME280;64718;52.124;6.226;2023-03-14T16:32:38;100563.47;;;6.07;59.75
76022;BME280;64718;52.124;6.226;2023-03-14T16:35:06;100575.75;;;5.99;59.97
76022;BME280;64718;52.124;6.226;2023-03-14T16:37:33;100583.81;;;5.87;59.16
76022;BME280;64718;52.124;6.226;2023-03-14T16:39:59;100583.19;;;5.77;57.25
76022;BME280;64718;52.124;6.226;2023-03-14T16:42:27;100593.75;;;5.68;57.33
76022;BME280;64718;52.124;6.226;2023-03-14T16:44:53;100589.59;;;5.62;57.37
76022;BME280;64718;52.124;6.226;2023-03-14T16:47:20;100600.03;;;5.58;57.76
76022;BME280;64718;52.124;6.226;2023-03-14T16:49:46;100607.13;;;5.50;59.97
76022;BME280;64718;52.124;6.226;2023-03-14T16:52:13;100611.69;;;5.40;57.41
76022;BME280;64718;52.124;6.226;2023-03-14T16:54:39;100616.94;;;5.35;57.25
76022;BME280;64718;52.124;6.226;2023-03-14T16:57:06;100621.31;;;5.33;58.84
76022;BME280;64718;52.124;6.226;2023-03-14T16:59:34;100632.41;;;5.35;59.48
76022;BME280;64718;52.124;6.226;2023-03-14T17:02:00;100637.69;;;5.31;60.32
76022;BME280;64718;52.124;6.226;2023-03-14T17:04:27;100642.81;;;5.32;60.10
76022;BME280;64718;52.124;6.226;2023-03-14T17:06:53;100655.78;;;5.29;60.63
76022;BME280;64718;52.124;6.226;2023-03-14T17:09:20;100660.06;;;5.30;61.63
76022;BME280;64718;52.124;6.226;2023-03-14T17:11:46;100674.72;;;5.28;63.10
76022;BME280;64718;52.124;6.226;2023-03-14T17:14:13;100679.97;;;5.24;61.05
76022;BME280;64718;52.124;6.226;2023-03-14T17:16:41;100676.63;;;5.19;62.18
76022;BME280;64718;52.124;6.226;2023-03-14T17:19:07;100687.19;;;5.08;64.36
76022;BME280;64718;52.124;6.226;2023-03-14T17:21:34;100694.19;;;5.03;63.26
76022;BME280;64718;52.124;6.226;2023-03-14T17:24:00;100690.81;;;4.99;63.59
76022;BME280;64718;52.124;6.226;2023-03-14T17:26:27;100696.16;;;4.92;63.29
76022;BME280;64718;52.124;6.226;2023-03-14T17:28:54;100704.03;;;4.84;63.39
76022;BME280;64718;52.124;6.226;2023-03-14T17:31:20;100706.75;;;4.78;64.35
76022;BME280;64718;52.124;6.226;2023-03-14T17:33:49;100702.38;;;4.82;63.02
76022;BME280;64718;52.124;6.226;2023-03-14T17:36:17;100706.78;;;4.76;62.53
76022;BME280;64718;52.124;6.226;2023-03-14T17:38:44;100719.00;;;4.67;63.79
76022;BME280;64718;52.124;6.226;2023-03-14T17:41:12;100718.28;;;4.59;64.40
76022;BME280;64718;52.124;6.226;2023-03-14T17:43:38;100724.22;;;4.62;63.08
76022;BME280;64718;52.124;6.226;2023-03-14T17:46:07;100727.16;;;4.44;65.56
76022;BME280;64718;52.124;6.226;2023-03-14T17:48:35;100733.44;;;4.31;68.21
76022;BME280;64718;52.124;6.226;2023-03-14T17:51:04;100739.63;;;4.21;68.21
76022;BME280;64718;52.124;6.226;2023-03-14T17:53:30;100746.97;;;4.40;66.42
76022;BME280;64718;52.124;6.226;2023-03-14T17:55:57;100748.91;;;4.29;67.60
76022;BME280;64718;52.124;6.226;2023-03-14T17:58:24;100755.69;;;4.33;66.27
76022;BME280;64718;52.124;6.226;2023-03-14T18:00:51;100754.81;;;4.34;66.91
76022;BME280;64718;52.124;6.226;2023-03-14T18:03:17;100765.94;;;4.36;66.84
76022;BME280;64718;52.124;6.226;2023-03-14T18:05:44;100768.47;;;4.38;67.32
76022;BME280;64718;52.124;6.226;2023-03-14T18:08:14;100772.72;;;4.40;66.77
76022;BME280;64718;52.124;6.226;2023-03-14T18:10:41;100772.00;;;4.32;67.44
76022;BME280;64718;52.124;6.226;2023-03-14T18:13:08;100783.34;;;4.22;69.14
76022;BME280;64718;52.124;6.226;2023-03-14T18:15:34;100782.66;;;4.12;68.38
76022;BME280;64718;52.124;6.226;2023-03-14T18:18:01;100782.06;;;3.95;71.79
76022;BME280;64718;52.124;6.226;2023-03-14T18:20:28;100783.06;;;3.88;70.77
76022;BME280;64718;52.124;6.226;2023-03-14T18:22:55;100784.97;;;3.75;71.25
76022;BME280;64718;52.124;6.226;2023-03-14T18:25:23;100786.75;;;3.72;72.31
76022;BME280;64718;52.124;6.226;2023-03-14T18:27:49;100792.97;;;3.57;72.94
76022;BME280;64718;52.124;6.226;2023-03-14T18:30:16;100808.53;;;3.45;73.20
76022;BME280;64718;52.124;6.226;2023-03-14T18:32:44;100810.25;;;3.46;72.97
76022;BME280;64718;52.124;6.226;2023-03-14T18:35:11;100821.47;;;3.40;73.49
76022;BME280;64718;52.124;6.226;2023-03-14T18:37:37;100830.00;;;3.42;73.45
76022;BME280;64718;52.124;6.226;2023-03-14T18:40:04;100832.47;;;3.53;73.15
76022;BME280;64718;52.124;6.226;2023-03-14T18:42:35;100840.38;;;3.35;73.37
76022;BME280;64718;52.124;6.226;2023-03-14T18:45:02;100838.78;;;3.26;73.96
76022;BME280;64718;52.124;6.226;2023-03-14T18:47:29;100850.03;;;3.19;74.86
76022;BME280;64718;52.124;6.226;2023-03-14T18:49:59;100853.19;;;3.38;73.36
76022;BME280;64718;52.124;6.226;2023-03-14T18:52:26;100860.03;;;3.40;75.18
76022;BME280;64718;52.124;6.226;2023-03-14T18:54:53;100862.38;;;3.59;74.06
76022;BME280;64718;52.124;6.226;2023-03-14T18:57:19;100867.41;;;3.66;73.98
76022;BME280;64718;52.124;6.226;2023-03-14T18:59:48;100871.69;;;3.67;73.78
76022;BME280;64718;52.124;6.226;2023-03-14T19:02:16;100871.50;;;3.79;72.68
76022;BME280;64718;52.124;6.226;2023-03-14T19:04:43;100873.34;;;3.71;73.36
76022;BME280;64718;52.124;6.226;2023-03-14T19:07:10;100877.69;;;3.68;72.95
76022;BME280;64718;52.124;6.226;2023-03-14T19:09:38;100881.81;;;3.78;72.72
76022;BME280;64718;52.124;6.226;2023-03-14T19:12:05;100881.13;;;3.67;73.61
76022;BME280;64718;52.124;6.226;2023-03-14T19:14:31;100888.81;;;3.68;73.23
76022;BME280;64718;52.124;6.226;2023-03-14T19:16:59;100898.44;;;3.54;74.71
76022;BME280;64718;52.124;6.226;2023-03-14T19:19:25;100888.22;;;3.49;73.65
76022;BME280;64718;52.124;6.226;2023-03-14T19:21:52;100891.78;;;3.36;75.10
76022;BME280;64718;52.124;6.226;2023-03-14T19:24:19;100901.34;;;3.25;75.50
76022;BME280;64718;52.124;6.226;2023-03-14T19:26:47;100898.94;;;3.11;75.85
76022;BME280;64718;52.124;6.226;2023-03-14T19:29:13;100900.66;;;3.11;75.59
76022;BME280;64718;52.124;6.226;2023-03-14T19:31:40;100907.53;;;3.09;76.29
76022;BME280;64718;52.124;6.226;2023-03-14T19:34:08;100904.25;;;2.96;76.98
76022;BME280;64718;52.124;6.226;2023-03-14T19:36:35;100918.88;;;2.86;77.50
76022;BME280;64718;52.124;6.226;2023-03-14T19:39:03;100921.44;;;2.85;78.85
76022;BME280;64718;52.124;6.226;2023-03-14T19:41:31;100919.00;;;2.71;78.64
76022;BME280;64718;52.124;6.226;2023-03-14T19:43:58;100922.47;;;2.67;79.94
76022;BME280;64718;52.124;6.226;2023-03-14T19:46:25;100923.34;;;2.66;79.59
76022;BME280;64718;52.124;6.226;2023-03-14T19:48:51;100924.38;;;2.47;80.21
76022;BME280;64718;52.124;6.226;2023-03-14T19:51:22;100921.81;;;2.45;80.54
76022;BME280;64718;52.124;6.226;2023-03-14T19:53:49;100933.91;;;2.25;82.64
76022;BME280;64718;52.124;6.226;2023-03-14T19:56:16;100927.91;;;2.28;83.84
76022;BME280;64718;52.124;6.226;2023-03-14T19:58:43;100924.63;;;2.10;90.28
76022;BME280;64718;52.124;6.226;2023-03-14T20:01:10;100920.38;;;2.05;89.88
76022;BME280;64718;52.124;6.226;2023-03-14T20:03:37;100922.94;;;2.08;90.32
76022;BME280;64718;52.124;6.226;2023-03-14T20:06:05;100925.59;;;1.94;92.83
76022;BME280;64718;52.124;6.226;2023-03-14T20:08:33;100921.41;;;1.79;92.56
76022;BME280;64718;52.124;6.226;2023-03-14T20:11:02;100927.47;;;1.58;95.96
76022;BME280;64718;52.124;6.226;2023-03-14T20:13:29;100930.97;;;1.35;97.28
76022;BME280;64718;52.124;6.226;2023-03-14T20:15:55;100931.84;;;1.29;98.09
76022;BME280;64718;52.124;6.226;2023-03-14T20:18:22;100932.66;;;1.43;96.90
76022;BME280;64718;52.124;6.226;2023-03-14T20:20:48;100941.19;;;1.45;97.33
76022;BME280;64718;52.124;6.226;2023-03-14T20:23:15;100937.78;;;1.40;96.97
76022;BME280;64718;52.124;6.226;2023-03-14T20:25:43;100936.91;;;1.47;97.16
76022;BME280;64718;52.124;6.226;2023-03-14T20:28:11;100936.13;;;1.32;97.92
76022;BME280;64718;52.124;6.226;2023-03-14T20:30:37;100940.41;;;1.14;98.48
76022;BME280;64718;52.124;6.226;2023-03-14T20:33:04;100945.53;;;1.08;98.77
76022;BME280;64718;52.124;6.226;2023-03-14T20:35:30;100946.44;;;0.95;99.46
76022;BME280;64718;52.124;6.226;2023-03-14T20:37:57;100954.97;;;0.99;98.68
76022;BME280;64718;52.124;6.226;2023-03-14T20:40:24;100960.06;;;1.20;97.73
76022;BME280;64718;52.124;6.226;2023-03-14T20:42:54;100949.78;;;1.32;96.94
76022;BME280;64718;52.124;6.226;2023-03-14T20:45:20;100943.81;;;1.30;96.96
76022;BME280;64718;52.124;6.226;2023-03-14T20:47:47;100953.22;;;1.22;97.75
76022;BME280;64718;52.124;6.226;2023-03-14T20:50:14;100955.78;;;1.26;95.90
76022;BME280;64718;52.124;6.226;2023-03-14T20:52:40;100960.06;;;1.24;96.38
76022;BME280;64718;52.124;6.226;2023-03-14T20:55:08;100960.00;;;1.37;96.07
76022;BME280;64718;52.124;6.226;2023-03-14T20:57:34;100954.84;;;1.44;95.25
76022;BME280;64718;52.124;6.226;2023-03-14T21:00:02;100960.00;;;1.43;95.06
76022;BME280;64718;52.124;6.226;2023-03-14T21:02:32;100963.38;;;1.49;94.89
76022;BME280;64718;52.124;6.226;2023-03-14T21:05:00;100971.03;;;1.58;93.50
76022;BME280;64718;52.124;6.226;2023-03-14T21:07:28;100980.41;;;1.63;94.07
76022;BME280;64718;52.124;6.226;2023-03-14T21:09:55;100981.97;;;2.00;91.84
76022;BME280;64718;52.124;6.226;2023-03-14T21:12:21;100991.31;;;2.12;92.59
76022;BME280;64718;52.124;6.226;2023-03-14T21:14:48;100990.44;;;2.16;93.10
76022;BME280;64718;52.124;6.226;2023-03-14T21:17:16;100986.16;;;2.13;92.86
76022;BME280;64718;52.124;6.226;2023-03-14T21:19:42;100991.38;;;2.03;93.33
76022;BME280;64718;52.124;6.226;2023-03-14T21:22:09;100998.94;;;2.22;93.16
76022;BME280;64718;52.124;6.226;2023-03-14T21:24:42;100998.88;;;2.36;92.91
76022;BME280;64718;52.124;6.226;2023-03-14T21:27:09;100988.56;;;2.44;92.99
76022;BME280;64718;52.124;6.226;2023-03-14T21:29:37;100991.22;;;2.33;94.19
76022;BME280;64718;52.124;6.226;2023-03-14T21:32:03;100987.75;;;2.31;95.21
76022;BME280;64718;52.124;6.226;2023-03-14T21:34:31;100986.13;;;2.22;96.47
76022;BME280;64718;52.124;6.226;2023-03-14T21:36:58;100983.50;;;2.27;97.40
76022;BME280;64718;52.124;6.226;2023-03-14T21:39:24;100987.84;;;2.20;98.06
76022;BME280;64718;52.124;6.226;2023-03-14T21:41:51;100986.94;;;2.28;100.00
76022;BME280;64718;52.124;6.226;2023-03-14T21:44:17;100993.78;;;2.32;100.00
76022;BME280;64718;52.124;6.226;2023-03-14T21:46:45;101006.41;;;2.59;100.00
76022;BME280;64718;52.124;6.226;2023-03-14T21:49:12;101007.16;;;2.75;100.00
76022;BME280;64718;52.124;6.226;2023-03-14T21:51:40;101001.97;;;2.81;100.00
76022;BME280;64718;52.124;6.226;2023-03-14T21:54:10;101013.94;;;2.83;100.00
76022;BME280;64718;52.124;6.226;2023-03-14T21:56:39;101005.34;;;2.86;100.00
76022;BME280;64718;52.124;6.226;2023-03-14T21:59:07;101002.75;;;2.88;100.00
76022;BME280;64718;52.124;6.226;2023-03-14T22:01:34;101004.50;;;2.85;100.00
76022;BME280;64718;52.124;6.226;2023-03-14T22:04:00;101006.22;;;2.85;100.00
76022;BME280;64718;52.124;6.226;2023-03-14T22:06:27;101002.81;;;2.80;100.00
76022;BME280;64718;52.124;6.226;2023-03-14T22:08:55;101007.13;;;2.76;100.00
76022;BME280;64718;52.124;6.226;2023-03-14T22:11:23;101004.59;;;2.72;100.00
76022;BME280;64718;52.124;6.226;2023-03-14T22:13:49;101006.44;;;2.56;100.00
76022;BME280;64718;52.124;6.226;2023-03-14T22:16:16;101006.50;;;2.48;100.00
76022;BME280;64718;52.124;6.226;2023-03-14T22:18:42;101007.38;;;2.46;100.00
76022;BME280;64718;52.124;6.226;2023-03-14T22:21:09;101005.63;;;2.49;99.82